Time;durP1;ratioP1;P1;durP2;ratioP2;P2;SDS_P1;SDS_P2;PMS_P1;PMS_P2;Temp;Humidity;BMP_temperature;BMP_pressure;BME280_temperature;BME280_humidity;BME280_pressure;Samples;Min_cycle;Max_cycle;Signal;HPM_P1;HPM_P2
2023/11/05 00:01:29;;;;;;;9.50;2.70;;;;;;;9.06;100.00;98371.25;5031092;28;20176;-70
2023/11/05 00:03:54;;;;;;;8.07;2.47;;;;;;;8.88;100.00;98355.50;5007024;28;20205;-70
2023/11/05 00:06:20;;;;;;;7.10;2.90;;;;;;;9.05;100.00;98396.38;5008721;28;20894;-70
2023/11/05 00:08:45;;;;;;;5.30;2.30;;;;;;;8.82;100.00;98365.31;5011753;28;20483;-70
2023/11/05 00:11:11;;;;;;;5.60;2.53;;;;;;;9.04;100.00;98400.91;5023986;28;20185;-70
2023/11/05 00:13:37;;;;;;;7.83;3.27;;;;;;;9.01;100.00;98413.97;5013706;28;20357;-70
2023/11/05 00:16:03;;;;;;;5.17;2.10;;;;;;;8.38;100.00;98320.66;5025036;28;20806;-70
2023/11/05 00:18:28;;;;;;;7.37;3.13;;;;;;;7.90;100.00;98268.69;5028082;28;20718;-70
2023/11/05 00:20:54;;;;;;;8.33;2.70;;;;;;;8.52;100.00;98371.06;5028937;28;20492;-72
2023/11/05 00:23:20;;;;;;;6.77;2.70;;;;;;;8.10;100.00;98315.41;5027212;28;20251;-70
2023/11/05 00:25:45;;;;;;;6.87;2.70;;;;;;;8.29;100.00;98326.66;5028683;28;20705;-71
2023/11/05 00:28:10;;;;;;;5.20;2.30;;;;;;;8.89;100.00;98397.25;5025868;28;20907;-71
2023/11/05 00:30:36;;;;;;;9.70;2.87;;;;;;;8.28;100.00;98325.03;5032452;28;20216;-71
2023/11/05 00:33:01;;;;;;;11.43;2.67;;;;;;;8.79;100.00;98396.06;5032560;28;20322;-70
2023/11/05 00:35:27;;;;;;;11.23;2.90;;;;;;;9.07;100.00;98430.91;5030194;28;20203;-71
2023/11/05 00:37:52;;;;;;;9.33;3.27;;;;;;;8.71;100.00;98393.00;5027276;28;20228;-70
2023/11/05 00:40:18;;;;;;;6.50;2.73;;;;;;;8.14;100.00;98284.50;5030438;28;20235;-70
2023/11/05 00:42:43;;;;;;;5.93;2.47;;;;;;;9.27;100.00;98453.34;5031975;28;20187;-70
2023/11/05 00:45:09;;;;;;;6.17;2.20;;;;;;;9.22;100.00;98452.47;5028535;28;20212;-70
2023/11/05 00:47:34;;;;;;;7.50;2.67;;;;;;;8.36;100.00;98317.41;5028697;28;20937;-70
2023/11/05 00:50:00;;;;;;;6.50;2.80;;;;;;;8.46;100.00;98321.31;5010531;28;20742;-70
2023/11/05 00:52:25;;;;;;;10.43;3.47;;;;;;;8.83;100.00;98375.78;5016648;28;20784;-71
2023/11/05 00:54:51;;;;;;;9.20;3.27;;;;;;;9.19;100.00;98443.09;5027756;28;20200;-70
2023/11/05 00:57:17;;;;;;;9.73;3.03;;;;;;;8.32;100.00;98286.88;5021831;28;20553;-70
2023/11/05 00:59:43;;;;;;;7.40;2.80;;;;;;;9.12;100.00;98430.97;5010100;28;20199;-70
2023/11/05 01:02:08;;;;;;;8.67;2.23;;;;;;;9.18;100.00;98421.94;5024439;28;20945;-70
2023/11/05 01:04:34;;;;;;;7.40;3.03;;;;;;;9.21;100.00;98424.94;5024082;28;20602;-71
2023/11/05 01:06:59;;;;;;;8.17;2.80;;;;;;;9.30;100.00;98421.81;5023960;28;20645;-71
2023/11/05 01:09:25;;;;;;;9.60;2.70;;;;;;;9.09;100.00;98394.84;5025681;28;20524;-71
2023/11/05 01:11:50;;;;;;;6.57;2.47;;;;;;;8.67;100.00;98339.22;5009581;28;20711;-71
2023/11/05 01:14:16;;;;;;;11.13;2.97;;;;;;;9.09;100.00;98386.00;5031220;28;20636;-71
2023/11/05 01:16:41;;;;;;;8.33;2.73;;;;;;;8.65;100.00;98309.28;5031065;28;20738;-71
2023/11/05 01:19:06;;;;;;;9.53;2.87;;;;;;;8.30;100.00;98234.78;5024920;28;20282;-70
2023/11/05 01:21:32;;;;;;;12.20;2.73;;;;;;;9.32;100.00;98395.63;5023007;28;20184;-70
2023/11/05 01:23:57;;;;;;;9.20;2.07;;;;;;;9.09;100.00;98353.91;5009321;28;20200;-70
2023/11/05 01:26:23;;;;;;;9.40;2.60;;;;;;;9.20;100.00;98383.19;5028206;28;20210;-70
2023/11/05 01:28:48;;;;;;;7.67;2.10;;;;;;;9.23;100.00;98382.69;5027701;28;20219;-71
2023/11/05 01:31:15;;;;;;;9.90;2.80;;;;;;;8.59;100.00;98254.13;5025915;28;20177;-72
2023/11/05 01:33:40;;;;;;;15.83;2.40;;;;;;;8.36;100.00;98242.63;5030534;28;20196;-70
2023/11/05 01:36:06;;;;;;;8.37;2.07;;;;;;;9.28;100.00;98364.00;5022910;28;20446;-70
2023/11/05 01:38:32;;;;;;;7.70;2.30;;;;;;;9.26;100.00;98362.69;5023570;28;20179;-70
2023/11/05 01:40:57;;;;;;;10.13;2.30;;;;;;;8.71;100.00;98262.06;5030006;28;20799;-70
2023/11/05 01:43:23;;;;;;;14.30;3.23;;;;;;;9.21;100.00;98347.38;5027051;28;20621;-70
2023/11/05 01:45:48;;;;;;;6.67;2.00;;;;;;;8.47;100.00;98224.06;5026272;28;20243;-70
2023/11/05 01:48:14;;;;;;;12.43;2.50;;;;;;;9.18;100.00;98325.66;5026995;28;20211;-70
2023/11/05 01:50:41;;;;;;;15.43;2.80;;;;;;;9.13;100.00;98296.19;5025719;28;20185;-70
2023/11/05 01:53:07;;;;;;;11.47;2.10;;;;;;;8.70;100.00;98215.78;5025868;28;20261;-70
2023/11/05 01:55:33;;;;;;;6.60;2.07;;;;;;;8.44;100.00;98171.16;5023396;28;20439;-70
2023/11/05 01:57:59;;;;;;;8.77;2.30;;;;;;;8.44;100.00;98171.94;5011464;28;20435;-70
2023/11/05 02:00:25;;;;;;;9.03;2.40;;;;;;;8.53;100.00;98186.50;5023231;28;20431;-71
2023/11/05 02:02:51;;;;;;;15.50;2.87;;;;;;;8.99;100.00;98244.97;5009468;28;20707;-71
2023/11/05 02:05:17;;;;;;;9.97;2.27;;;;;;;8.75;100.00;98205.16;5026077;28;20509;-71
2023/11/05 02:07:43;;;;;;;9.53;2.73;;;;;;;9.18;100.00;98243.56;5025198;28;20755;-70
2023/11/05 02:10:09;;;;;;;13.37;2.07;;;;;;;8.55;100.00;98154.16;5021041;28;20196;-70
2023/11/05 02:12:35;;;;;;;9.13;1.83;;;;;;;9.24;100.00;98257.78;5023522;28;20510;-71
2023/11/05 02:15:00;;;;;;;14.33;2.33;;;;;;;9.19;100.00;98241.69;5027128;28;21039;-71
2023/11/05 02:17:26;;;;;;;10.13;3.13;;;;;;;9.20;100.00;98272.72;5027753;28;21136;-70
2023/11/05 02:19:51;;;;;;;9.63;2.20;;;;;;;8.94;100.00;98227.03;5024098;28;20279;-70
2023/11/05 02:22:20;;;;;;;15.27;2.17;;;;;;;9.24;100.00;98280.00;5029031;28;20283;-70
2023/11/05 02:24:46;;;;;;;10.27;2.10;;;;;;;9.41;100.00;98263.03;5028067;28;20347;-70
2023/11/05 02:27:12;;;;;;;11.13;2.00;;;;;;;9.26;100.00;98261.84;5027877;28;21049;-71
2023/11/05 02:29:38;;;;;;;12.50;2.27;;;;;;;8.54;100.00;98144.56;5024745;28;20195;-70
2023/11/05 02:32:04;;;;;;;9.07;2.30;;;;;;;8.57;100.00;98138.72;5026799;28;21022;-70
2023/11/05 02:34:31;;;;;;;7.23;1.80;;;;;;;8.44;100.00;98118.53;5026895;28;21050;-70
2023/11/05 02:36:57;;;;;;;8.10;2.47;;;;;;;9.13;100.00;98245.38;5002494;28;20446;-71
2023/11/05 02:39:22;;;;;;;8.20;1.83;;;;;;;9.14;100.00;98213.03;5027113;28;20441;-70
2023/11/05 02:41:47;;;;;;;7.23;2.13;;;;;;;9.25;100.00;98228.09;5024905;28;20462;-71
2023/11/05 02:44:13;;;;;;;9.43;2.30;;;;;;;9.05;100.00;98204.69;5020669;28;20968;-70
2023/11/05 02:46:39;;;;;;;8.07;2.20;;;;;;;8.90;100.00;98160.94;5025568;28;20191;-70
2023/11/05 02:49:07;;;;;;;9.63;2.20;;;;;;;8.52;100.00;98119.94;5005607;28;20640;-71
2023/11/05 02:51:34;;;;;;;8.00;2.33;;;;;;;8.41;100.00;98081.63;5024157;28;20552;-70
2023/11/05 02:53:59;;;;;;;10.40;1.97;;;;;;;9.09;100.00;98220.22;5008291;28;20470;-71
2023/11/05 02:56:24;;;;;;;8.23;2.40;;;;;;;8.88;100.00;98161.19;5027402;28;20433;-71
2023/11/05 02:58:50;;;;;;;10.90;2.53;;;;;;;9.21;100.00;98207.47;5029546;28;20184;-70
2023/11/05 03:01:23;;;;;;;10.77;2.17;;;;;;;8.22;100.00;98097.16;5020937;28;20798;-70
2023/11/05 03:03:50;;;;;;;7.73;1.70;;;;;;;8.63;100.00;98135.03;5006854;28;20481;-70
2023/11/05 03:06:16;;;;;;;8.13;1.73;;;;;;;9.27;100.00;98217.16;5023828;28;20707;-72
2023/11/05 03:08:41;;;;;;;9.27;2.37;;;;;;;8.84;100.00;98168.09;5023062;28;20435;-71
2023/11/05 03:11:07;;;;;;;12.10;2.00;;;;;;;8.96;100.00;98183.97;5010245;28;20196;-71
2023/11/05 03:13:33;;;;;;;10.23;2.00;;;;;;;9.13;100.00;98206.06;5006589;28;20218;-70
2023/11/05 03:15:58;;;;;;;9.13;2.50;;;;;;;9.19;100.00;98214.94;5021672;28;20440;-70
2023/11/05 03:18:24;;;;;;;8.90;2.10;;;;;;;9.16;100.00;98184.16;5026186;28;20183;-70
2023/11/05 03:20:49;;;;;;;10.63;1.80;;;;;;;8.28;100.00;98080.16;5024663;28;20219;-70
2023/11/05 03:23:15;;;;;;;6.47;1.80;;;;;;;8.99;100.00;98200.31;5023810;28;20461;-70
2023/11/05 03:25:41;;;;;;;8.00;1.60;;;;;;;9.01;100.00;98189.38;5024440;28;20200;-70
2023/11/05 03:28:07;;;;;;;7.30;1.60;;;;;;;8.46;100.00;98067.53;5021972;28;20196;-70
2023/11/05 03:30:33;;;;;;;8.53;1.63;;;;;;;9.23;100.00;98195.47;5010999;28;20461;-70
2023/11/05 03:32:58;;;;;;;12.23;1.93;;;;;;;9.16;100.00;98205.56;5008614;28;20963;-72
2023/11/05 03:35:24;;;;;;;10.60;1.67;;;;;;;8.28;100.00;98048.09;5005474;28;20633;-70
2023/11/05 03:37:49;;;;;;;16.30;2.33;;;;;;;9.01;100.00;98176.00;5024945;28;20203;-70
2023/11/05 03:40:14;;;;;;;8.27;1.70;;;;;;;9.18;100.00;98205.31;5024142;28;20306;-70
2023/11/05 03:42:40;;;;;;;9.70;2.63;;;;;;;9.05;100.00;98207.34;5030016;28;20230;-72
2023/11/05 03:45:06;;;;;;;9.83;2.00;;;;;;;9.18;100.00;98202.66;5029632;28;20555;-71
2023/11/05 03:47:31;;;;;;;12.63;2.70;;;;;;;9.27;100.00;98206.47;5027755;28;20215;-72
2023/11/05 03:49:56;;;;;;;7.30;1.93;;;;;;;8.70;100.00;98121.44;5026225;28;20195;-70
2023/11/05 03:52:22;;;;;;;6.50;2.20;;;;;;;8.48;100.00;98116.97;5025322;28;20677;-72
2023/11/05 03:54:47;;;;;;;9.03;1.93;;;;;;;8.78;100.00;98161.88;5023329;28;20196;-70
2023/11/05 03:57:13;;;;;;;13.23;2.20;;;;;;;8.31;100.00;98084.19;5022716;28;20177;-70
2023/11/05 03:59:39;;;;;;;7.97;1.90;;;;;;;9.10;100.00;98203.09;5002392;28;20185;-70
2023/11/05 04:02:04;;;;;;;9.47;2.00;;;;;;;8.62;100.00;98127.25;5018739;28;20192;-70
2023/11/05 04:04:30;;;;;;;7.67;1.83;;;;;;;7.99;100.00;98031.50;5019008;28;20852;-70
2023/11/05 04:06:56;;;;;;;11.50;2.20;;;;;;;8.27;100.00;98099.88;5017332;28;20188;-70
2023/11/05 04:09:22;;;;;;;17.33;2.60;;;;;;;8.95;100.00;98206.44;5001162;28;20280;-70
2023/11/05 04:11:48;;;;;;;10.77;2.60;;;;;;;8.30;100.00;98093.22;5002733;28;20949;-70
2023/11/05 04:14:13;;;;;;;7.97;2.23;;;;;;;8.98;100.00;98189.88;5020444;28;20467;-72
2023/11/05 04:16:39;;;;;;;8.20;1.93;;;;;;;8.20;100.00;98079.78;5017932;28;20189;-70
2023/11/05 04:19:04;;;;;;;10.50;2.90;;;;;;;9.07;100.00;98190.25;5021308;28;20192;-70
2023/11/05 04:21:30;;;;;;;8.20;2.00;;;;;;;8.51;100.00;98087.09;5025129;28;20184;-70
2023/11/05 04:23:55;;;;;;;10.80;1.80;;;;;;;8.90;100.00;98140.34;5004350;28;20212;-70
2023/11/05 04:26:21;;;;;;;11.77;2.40;;;;;;;9.08;100.00;98187.28;5023928;28;20204;-70
2023/11/05 04:28:46;;;;;;;7.70;2.47;;;;;;;9.21;100.00;98186.09;5019717;28;20266;-70
2023/11/05 04:31:12;;;;;;;10.73;2.30;;;;;;;9.31;100.00;98206.75;5022950;28;20276;-70
2023/11/05 04:33:37;;;;;;;8.07;2.20;;;;;;;9.38;100.00;98213.50;5007143;28;20662;-70
2023/11/05 04:36:04;;;;;;;9.50;1.97;;;;;;;8.70;100.00;98102.75;5020477;28;20192;-71
2023/11/05 04:38:29;;;;;;;15.30;2.33;;;;;;;9.03;100.00;98144.50;5007508;28;20188;-70
2023/11/05 04:40:55;;;;;;;11.90;2.40;;;;;;;9.16;100.00;98186.03;5025591;28;20472;-70
2023/11/05 04:43:20;;;;;;;7.17;2.20;;;;;;;9.05;100.00;98177.94;5028456;28;20200;-70
2023/11/05 04:45:46;;;;;;;10.10;2.37;;;;;;;9.41;100.00;98190.81;5031607;28;20713;-71
2023/11/05 04:48:11;;;;;;;8.70;2.07;;;;;;;8.51;100.00;98068.38;5026485;28;20643;-70
2023/11/05 04:50:37;;;;;;;10.67;2.27;;;;;;;8.33;100.00;98069.53;5029333;28;20317;-70
2023/11/05 04:53:03;;;;;;;9.53;2.50;;;;;;;8.60;100.00;98079.41;5025836;28;20206;-70
2023/11/05 04:55:29;;;;;;;11.53;2.30;;;;;;;9.09;100.00;98166.72;5008905;28;20592;-70
2023/11/05 04:57:55;;;;;;;10.00;2.40;;;;;;;9.16;100.00;98178.81;5014467;28;20180;-70
2023/11/05 05:00:20;;;;;;;9.80;2.40;;;;;;;9.15;100.00;98171.88;5024866;28;21071;-70
2023/11/05 05:02:46;;;;;;;11.07;2.60;;;;;;;8.70;100.00;98132.16;5031241;28;20446;-70
2023/11/05 05:05:12;;;;;;;10.90;1.93;;;;;;;8.37;100.00;98057.25;5012939;28;20261;-70
2023/11/05 05:07:37;;;;;;;7.40;2.07;;;;;;;8.48;100.00;98073.44;5033454;28;20435;-70
2023/11/05 05:10:04;;;;;;;7.13;1.87;;;;;;;8.67;100.00;98112.06;5029972;28;20667;-70
2023/11/05 05:12:29;;;;;;;8.20;1.77;;;;;;;9.25;100.00;98187.19;5027162;28;20204;-71
2023/11/05 05:14:55;;;;;;;7.90;2.03;;;;;;;9.03;100.00;98152.50;5030029;28;20462;-71
2023/11/05 05:17:20;;;;;;;12.03;2.50;;;;;;;9.19;100.00;98172.16;5024822;28;20283;-70
2023/11/05 05:19:46;;;;;;;8.83;2.20;;;;;;;9.17;100.00;98179.63;5025232;28;20199;-70
2023/11/05 05:22:12;;;;;;;12.77;2.70;;;;;;;9.02;100.00;98151.69;5011976;28;20240;-70
2023/11/05 05:24:37;;;;;;;8.20;2.00;;;;;;;9.30;100.00;98184.56;5025293;28;20466;-70
2023/11/05 05:27:03;;;;;;;9.03;2.00;;;;;;;8.83;100.00;98105.03;5027582;28;20195;-70
2023/11/05 05:29:28;;;;;;;8.33;1.80;;;;;;;9.25;100.00;98166.59;5022435;28;20281;-70
2023/11/05 05:31:53;;;;;;;11.07;1.87;;;;;;;9.32;100.00;98198.50;5025542;28;20192;-70
2023/11/05 05:34:19;;;;;;;8.23;1.70;;;;;;;9.38;100.00;98189.44;5027807;28;20212;-70
2023/11/05 05:36:44;;;;;;;6.63;1.77;;;;;;;8.60;100.00;98063.38;5025919;28;20195;-71
2023/11/05 05:39:10;;;;;;;6.57;2.07;;;;;;;9.30;100.00;98173.84;5026743;28;20200;-72
2023/11/05 05:41:36;;;;;;;7.13;1.97;;;;;;;8.74;100.00;98109.22;5007207;28;20554;-71
2023/11/05 05:44:02;;;;;;;7.13;1.83;;;;;;;8.41;100.00;98076.28;5004220;28;20213;-71
2023/11/05 05:46:28;;;;;;;6.43;1.57;;;;;;;9.38;100.00;98197.47;5028772;28;20447;-70
2023/11/05 05:48:54;;;;;;;5.03;1.47;;;;;;;9.17;100.00;98176.94;5023984;28;20963;-70
2023/11/05 05:51:19;;;;;;;6.17;1.87;;;;;;;9.04;100.00;98204.91;5025394;28;20187;-70
2023/11/05 05:53:45;;;;;;;8.10;2.03;;;;;;;9.07;100.00;98177.66;5029619;28;20219;-70
2023/11/05 05:56:12;;;;;;;10.63;2.10;;;;;;;9.04;100.00;98159.47;5013005;28;20251;-72
2023/11/05 05:58:38;;;;;;;7.07;1.83;;;;;;;9.33;100.00;98193.94;5010133;28;20816;-72
2023/11/05 06:01:03;;;;;;;7.13;2.20;;;;;;;9.18;100.00;98203.44;5027311;28;20633;-70
2023/11/05 06:03:29;;;;;;;5.93;1.40;;;;;;;8.69;100.00;98146.56;5026731;28;20255;-71
2023/11/05 06:05:54;;;;;;;5.30;1.60;;;;;;;8.95;100.00;98169.00;5010325;28;20219;-70
2023/11/05 06:08:20;;;;;;;8.40;2.03;;;;;;;8.73;100.00;98150.34;5029710;28;20210;-70
2023/11/05 06:10:45;;;;;;;5.13;1.47;;;;;;;8.35;100.00;98075.41;5027823;28;20497;-70
2023/11/05 06:13:11;;;;;;;7.77;2.47;;;;;;;8.07;100.00;98059.59;5027111;28;20505;-70
2023/11/05 06:15:36;;;;;;;8.80;1.53;;;;;;;8.84;100.00;98160.06;5028280;28;20184;-70
2023/11/05 06:18:02;;;;;;;8.60;1.67;;;;;;;8.35;100.00;98077.28;5030736;28;20186;-70
2023/11/05 06:20:27;;;;;;;7.67;1.60;;;;;;;9.07;100.00;98188.38;5028059;28;20208;-70
2023/11/05 06:22:54;;;;;;;10.03;1.50;;;;;;;8.26;100.00;98070.78;5025715;28;21098;-70
2023/11/05 06:25:19;;;;;;;7.13;1.63;;;;;;;8.23;100.00;98060.59;5023000;28;20566;-70
2023/11/05 06:27:45;;;;;;;6.63;1.90;;;;;;;8.24;100.00;98036.28;5024858;28;20457;-70
2023/11/05 06:30:11;;;;;;;8.87;1.93;;;;;;;8.19;100.00;98022.91;5022273;28;20214;-71
2023/11/05 06:32:38;;;;;;;8.50;1.97;;;;;;;8.34;100.00;98043.63;5005328;28;20481;-70
2023/11/05 06:35:04;;;;;;;10.70;1.80;;;;;;;8.98;100.00;98128.41;5021218;28;21007;-72
2023/11/05 06:37:30;;;;;;;6.40;2.07;;;;;;;9.13;100.00;98109.78;5021382;28;20489;-70
2023/11/05 06:39:56;;;;;;;10.20;2.27;;;;;;;8.48;100.00;98030.69;5005230;28;21188;-70
2023/11/05 06:42:22;;;;;;;7.67;3.80;;;;;;;8.94;100.00;98105.88;5026315;28;20435;-70
2023/11/05 06:44:47;;;;;;;6.87;2.30;;;;;;;9.19;100.00;98148.88;5026539;28;20844;-70
2023/11/05 06:47:13;;;;;;;7.43;2.13;;;;;;;9.12;100.00;98139.47;5027146;28;20189;-70
2023/11/05 06:49:39;;;;;;;6.33;1.50;;;;;;;9.30;100.00;98141.75;5026957;28;20210;-70
2023/11/05 06:52:04;;;;;;;5.50;1.47;;;;;;;9.29;100.00;98142.81;5030157;28;21029;-70
2023/11/05 06:54:30;;;;;;;8.63;2.60;;;;;;;9.27;100.00;98144.94;5027754;28;20196;-71
2023/11/05 06:56:55;;;;;;;8.83;1.37;;;;;;;9.20;100.00;98126.44;5011136;28;20186;-70
2023/11/05 06:59:21;;;;;;;3.97;1.30;;;;;;;9.09;100.00;98148.00;5032891;28;20623;-71
2023/11/05 07:01:48;;;;;;;6.53;1.87;;;;;;;9.00;100.00;98156.50;5025097;28;20192;-70
2023/11/05 07:04:13;;;;;;;5.30;1.33;;;;;;;8.48;100.00;98057.41;5008474;28;20208;-70
2023/11/05 07:06:39;;;;;;;4.57;1.40;;;;;;;9.05;100.00;98128.97;5024667;28;20789;-70
2023/11/05 07:09:06;;;;;;;5.03;1.10;;;;;;;8.41;100.00;98062.13;5025714;28;20211;-71
2023/11/05 07:11:32;;;;;;;6.87;1.60;;;;;;;8.36;100.00;98023.63;5005831;28;20262;-71
2023/11/05 07:13:58;;;;;;;8.50;1.50;;;;;;;8.53;100.00;98081.47;4998181;28;20458;-70
2023/11/05 07:16:25;;;;;;;4.90;1.60;;;;;;;9.46;100.00;98204.22;5005028;28;20658;-72
2023/11/05 07:18:51;;;;;;;6.33;1.30;;;;;;;8.55;100.00;98082.03;5022328;28;20952;-70
2023/11/05 07:21:17;;;;;;;5.20;1.70;;;;;;;9.38;100.00;98220.75;5010287;28;20494;-71
2023/11/05 07:23:43;;;;;;;5.93;1.50;;;;;;;9.31;100.00;98228.16;5023730;28;20502;-70
2023/11/05 07:26:08;;;;;;;6.30;1.37;;;;;;;9.25;100.00;98213.94;5025691;28;20192;-70
2023/11/05 07:28:34;;;;;;;9.60;1.50;;;;;;;8.70;100.00;98116.09;5018526;28;20322;-70
2023/11/05 07:31:00;;;;;;;4.37;1.20;;;;;;;9.19;100.00;98178.31;5010397;28;20714;-70
2023/11/05 07:33:25;;;;;;;4.50;1.20;;;;;;;8.70;100.00;98111.56;5025894;28;20721;-70
2023/11/05 07:35:50;;;;;;;5.47;1.50;;;;;;;9.18;100.00;98194.63;5022522;28;20176;-70
2023/11/05 07:38:16;;;;;;;7.20;1.20;;;;;;;9.47;100.00;98243.28;5009121;28;20667;-70
2023/11/05 07:40:42;;;;;;;5.83;1.20;;;;;;;9.15;100.00;98206.63;5022533;28;20216;-72
2023/11/05 07:43:07;;;;;;;6.10;1.30;;;;;;;9.20;100.00;98187.13;5018204;28;20217;-70
2023/11/05 07:45:32;;;;;;;5.53;1.50;;;;;;;9.34;100.00;98179.50;5022274;28;20415;-70
2023/11/05 07:47:58;;;;;;;6.10;1.40;;;;;;;9.24;100.00;98161.50;5019848;28;20222;-70
2023/11/05 07:50:25;;;;;;;5.57;1.60;;;;;;;9.02;100.00;98113.44;5025841;28;20186;-70
2023/11/05 07:52:51;;;;;;;6.07;1.60;;;;;;;9.58;100.00;98207.53;5007919;28;20187;-70
2023/11/05 07:55:16;;;;;;;6.70;1.60;;;;;;;9.36;100.00;98194.22;5025668;28;20434;-70
2023/11/05 07:57:43;;;;;;;4.47;1.43;;;;;;;9.51;100.00;98197.00;5026334;28;20230;-70
2023/11/05 08:00:15;;;;;;;8.60;1.60;;;;;;;9.62;100.00;98207.81;5021716;28;20247;-70
2023/11/05 08:02:41;;;;;;;8.07;1.97;;;;;;;9.47;100.00;98195.13;5001825;28;20484;-70
2023/11/05 08:05:06;;;;;;;5.50;1.47;;;;;;;9.57;100.00;98213.13;5021869;28;20463;-70
2023/11/05 08:07:32;;;;;;;7.30;1.83;;;;;;;9.32;100.00;98205.72;5023062;28;20473;-70
2023/11/05 08:09:57;;;;;;;6.20;1.20;;;;;;;9.44;100.00;98182.25;5024472;28;20278;-70
2023/11/05 08:12:23;;;;;;;5.30;1.30;;;;;;;9.43;100.00;98168.09;5030337;28;20191;-70
2023/11/05 08:14:49;;;;;;;7.63;1.70;;;;;;;9.16;100.00;98124.53;5012854;28;20494;-71
2023/11/05 08:17:14;;;;;;;5.90;1.80;;;;;;;8.81;100.00;98059.03;5016852;28;20427;-70
2023/11/05 08:19:41;;;;;;;7.33;1.60;;;;;;;9.42;100.00;98181.69;5030336;28;20192;-70
2023/11/05 08:22:06;;;;;;;7.97;1.67;;;;;;;9.61;100.00;98214.22;5027232;28;20188;-70
2023/11/05 08:24:31;;;;;;;5.80;1.73;;;;;;;8.51;100.00;98092.44;5027111;28;20475;-71
2023/11/05 08:26:57;;;;;;;8.67;3.10;;;;;;;8.67;100.00;98080.00;5032846;28;20589;-70
2023/11/05 08:29:22;;;;;;;6.33;1.60;;;;;;;9.02;100.00;98161.56;5027854;28;20188;-70
2023/11/05 08:31:49;;;;;;;7.53;1.77;;;;;;;9.46;100.00;98210.38;5029786;28;20641;-71
2023/11/05 08:34:14;;;;;;;7.07;2.13;;;;;;;9.08;100.00;98165.09;5012725;28;20196;-71
2023/11/05 08:36:39;;;;;;;6.17;1.50;;;;;;;9.49;100.00;98231.28;5028117;28;20446;-70
2023/11/05 08:39:05;;;;;;;10.40;1.90;;;;;;;9.39;100.00;98231.16;5028212;28;20192;-71
2023/11/05 08:41:31;;;;;;;9.10;1.53;;;;;;;9.68;100.00;98250.41;5030525;28;20178;-72
2023/11/05 08:43:57;;;;;;;9.03;2.07;;;;;;;9.15;100.00;98187.91;5010086;28;20222;-71
2023/11/05 08:46:22;;;;;;;5.03;1.37;;;;;;;9.38;100.00;98218.88;5029603;28;20211;-71
2023/11/05 08:48:48;;;;;;;4.87;1.60;;;;;;;8.76;100.00;98157.84;5033549;28;20176;-70
2023/11/05 08:51:23;;;;;;;5.47;1.37;;;;;;;8.80;100.00;98175.81;5014425;28;20188;-70
2023/11/05 08:53:49;;;;;;;5.10;1.53;;;;;;;8.91;100.00;98199.97;5030663;28;20208;-71
2023/11/05 08:56:15;;;;;;;7.63;1.60;;;;;;;8.44;100.00;98134.53;5028704;28;20428;-71
2023/11/05 08:58:40;;;;;;;4.77;1.17;;;;;;;8.85;100.00;98206.31;5027632;28;20785;-70
2023/11/05 09:01:06;;;;;;;4.23;1.10;;;;;;;9.33;100.00;98291.03;5030944;28;20187;-71
2023/11/05 09:03:32;;;;;;;7.93;1.33;;;;;;;9.53;100.00;98306.47;5024460;28;20212;-71
2023/11/05 09:05:58;;;;;;;8.27;1.43;;;;;;;9.53;100.00;98303.81;5026802;28;20474;-71
2023/11/05 09:08:24;;;;;;;4.20;1.03;;;;;;;9.60;100.00;98323.13;5023395;28;20208;-72
2023/11/05 09:10:50;;;;;;;4.63;1.20;;;;;;;9.62;100.00;98328.25;5028289;28;21183;-71
2023/11/05 09:13:15;;;;;;;5.00;1.40;;;;;;;9.07;100.00;98259.75;5007835;28;21144;-72
2023/11/05 09:15:40;;;;;;;4.87;0.97;;;;;;;9.47;100.00;98332.38;5030215;28;20188;-72
2023/11/05 09:18:06;;;;;;;5.07;1.00;;;;;;;9.33;100.00;98328.50;5026385;28;20203;-71
2023/11/05 09:20:32;;;;;;;8.27;1.33;;;;;;;8.82;100.00;98243.22;5026729;28;20188;-71
2023/11/05 09:22:57;;;;;;;5.60;1.37;;;;;;;9.90;100.00;98397.56;5024917;28;20207;-72
2023/11/05 09:25:23;;;;;;;4.57;1.50;;;;;;;9.68;100.00;98402.16;5023882;28;20219;-71
2023/11/05 09:27:49;;;;;;;3.80;1.10;;;;;;;9.55;100.00;98386.53;5022390;28;20181;-72
2023/11/05 09:30:14;;;;;;;4.20;1.57;;;;;;;9.58;100.00;98391.38;5021504;28;20315;-71
2023/11/05 09:32:44;;;;;;;4.43;1.77;;;;;;;9.76;100.00;98435.72;5006070;28;20827;-72
2023/11/05 09:35:12;;;;;;;3.70;1.70;;;;;;;9.77;100.00;98432.78;5008091;28;20621;-71
2023/11/05 09:37:42;;;;;;;5.90;2.13;;;;;;;9.77;100.00;98456.06;5023516;28;20526;-71
2023/11/05 09:40:09;;;;;;;7.37;2.40;;;;;;;9.70;100.00;98464.31;5003203;28;20465;-71
2023/11/05 09:42:44;;;;;;;6.90;2.80;;;;;;;9.89;100.00;98473.63;5025602;28;20522;-71
2023/11/05 09:45:11;;;;;;;6.23;3.00;;;;;;;8.85;100.00;98339.97;5008075;28;20932;-71
2023/11/05 09:47:40;;;;;;;7.73;3.30;;;;;;;9.79;100.00;98467.34;5027593;28;20435;-70
2023/11/05 09:50:09;;;;;;;8.70;3.13;;;;;;;9.12;100.00;98375.63;5010928;28;20482;-70
2023/11/05 09:52:38;;;;;;;5.50;3.20;;;;;;;8.98;100.00;98375.16;5009247;28;20447;-71
2023/11/05 09:55:04;;;;;;;7.00;2.90;;;;;;;10.00;100.00;98512.00;5024545;28;20430;-71
2023/11/05 09:57:30;;;;;;;6.87;3.20;;;;;;;9.34;100.00;98426.41;5027467;28;20435;-70
2023/11/05 09:59:55;;;;;;;6.93;3.70;;;;;;;9.99;100.00;98517.63;5024672;28;20961;-71
2023/11/05 10:02:21;;;;;;;5.60;3.00;;;;;;;10.27;100.00;98527.31;5026413;28;20360;-71
2023/11/05 10:04:46;;;;;;;8.23;4.03;;;;;;;9.51;100.00;98429.00;5016664;28;20207;-72
2023/11/05 10:07:12;;;;;;;8.90;3.93;;;;;;;10.09;100.00;98513.16;5029380;28;20187;-71
2023/11/05 10:09:39;;;;;;;7.47;3.90;;;;;;;10.19;100.00;98524.00;5029076;28;20211;-71
2023/11/05 10:12:05;;;;;;;8.47;4.70;;;;;;;10.23;100.00;98532.34;5010846;28;20184;-71
2023/11/05 10:14:31;;;;;;;6.27;3.77;;;;;;;9.38;100.00;98387.41;5001288;28;20645;-71
2023/11/05 10:16:58;;;;;;;7.30;4.20;;;;;;;9.64;100.00;98412.56;5010165;28;20449;-71
2023/11/05 10:19:23;;;;;;;10.37;4.37;;;;;;;10.20;100.00;98532.84;5024326;28;20438;-71
2023/11/05 10:21:49;;;;;;;11.03;3.90;;;;;;;9.75;100.00;98448.31;5009169;28;20975;-71
2023/11/05 10:24:14;;;;;;;7.13;4.03;;;;;;;10.03;100.00;98465.97;5002486;28;20276;-71
2023/11/05 10:26:39;;;;;;;8.23;4.30;;;;;;;10.12;100.00;98469.81;5024753;28;20195;-72
2023/11/05 10:29:07;;;;;;;12.80;4.33;;;;;;;10.23;100.00;98504.75;5011853;28;20175;-70
2023/11/05 10:31:33;;;;;;;9.30;3.70;;;;;;;9.70;100.00;98434.84;5007999;28;20196;-71
2023/11/05 10:34:03;;;;;;;8.47;3.80;;;;;;;9.90;100.00;98434.25;5026238;28;20467;-70
2023/11/05 10:36:29;;;;;;;6.40;3.83;;;;;;;9.77;100.00;98400.66;5025761;28;20438;-72
2023/11/05 10:38:54;;;;;;;9.43;3.83;;;;;;;10.60;100.00;98502.97;5030251;28;20462;-71
2023/11/05 10:41:20;;;;;;;8.47;3.50;;;;;;;10.62;100.00;98500.84;5008324;28;20255;-71
2023/11/05 10:43:47;;;;;;;11.27;3.70;;;;;;;10.65;100.00;98498.72;5026769;28;20723;-72
2023/11/05 10:46:18;;;;;;;9.20;3.90;;;;;;;9.81;100.00;98401.78;5023034;28;20487;-71
2023/11/05 10:48:45;;;;;;;7.73;3.60;;;;;;;10.51;100.00;98477.69;5010854;28;20522;-72
2023/11/05 10:51:12;;;;;;;7.40;3.43;;;;;;;9.11;100.00;98261.66;5026912;28;20958;-71
2023/11/05 10:53:41;;;;;;;10.57;3.80;;;;;;;9.71;100.00;98359.63;5007184;28;21045;-71
2023/11/05 10:56:29;;;;;;;13.53;4.70;;;;;;;10.54;100.00;98492.47;5009897;28;20435;-72
2023/11/05 10:58:58;;;;;;;13.53;4.33;;;;;;;9.71;100.00;98367.66;4995314;28;21068;-71
2023/11/05 11:01:29;;;;;;;8.87;4.20;;;;;;;10.00;100.00;98396.84;5027756;28;20501;-72
2023/11/05 11:04:03;;;;;;;6.50;3.20;;;;;;;10.68;100.00;98503.56;5023544;28;20973;-72
2023/11/05 11:06:28;;;;;;;7.53;4.00;;;;;;;10.59;100.00;98479.09;5009268;28;20441;-72
2023/11/05 11:09:00;;;;;;;10.13;3.90;;;;;;;9.89;100.00;98384.44;5027616;28;20781;-71
2023/11/05 11:11:25;;;;;;;11.13;3.83;;;;;;;10.35;100.00;98466.03;5007588;28;20172;-71
2023/11/05 11:13:56;;;;;;;13.40;4.00;;;;;;;10.60;100.00;98505.63;5008835;28;20915;-71
2023/11/05 11:16:30;;;;;;;10.20;4.10;;;;;;;10.70;100.00;98522.88;5008498;28;20187;-71
2023/11/05 11:18:56;;;;;;;8.70;3.87;;;;;;;10.38;100.00;98443.28;5022701;28;20777;-71
2023/11/05 11:21:23;;;;;;;7.97;4.07;;;;;;;10.57;100.00;98452.53;5023093;28;20440;-71
2023/11/05 11:23:49;;;;;;;7.87;3.70;;;;;;;10.35;100.00;98435.75;5009828;28;20467;-71
2023/11/05 11:26:24;;;;;;;16.43;4.90;;;;;;;10.25;100.00;98415.00;5023413;28;20802;-71